Latest Weather Observations for Montague Island

IDN60801

Issued at 9:32 am EDT Thursday 30 March 2017 (issued every 30 minutes, with the page automatically refreshed every 10 minutes)

About weather observations | Map of weather stations | Latest weather observations for NSW | Other Formats
Station Details ID: 069017 Name: MONTAGUE ISLAND LIGHTHOUSE Lat: -36.25 Lon: 150.23 Height: 52.0 m
Data from the previous 72 hours. | See also: Recent months at Montague Island
Date/Time
EDT
Temp
°C
App
Temp
°C
Dew
Point
°C
Rel
Hum
%
Delta-T
°C
Wind Press
QNH
hPa
Press
MSL
hPa
Rain since
9am
mm
Dir  Spd
km/h
Gust
km/h
Spd
kts
Gust
kts
30/09:30am 17.9 11.7 12.6 71 3.0 S 37 46 20 25 1011.6 1011.5 0.0
30/09:00am 17.9 11.1 13.2 74 2.7 S 41 50 22 27 1011.2 1011.1 0.0
30/08:30am 17.4 10.7 13.5 78 2.2 S 41 50 22 27 1010.3 1010.2 0.0
30/08:00am 17.8 11.4 14.3 80 2.0 S 41 48 22 26 1009.6 1009.5 0.0
30/07:30am 17.9 11.5 14.4 80 2.0 S 41 50 22 27 1009.0 1008.9 0.0
30/07:00am 18.5 12.9 15.4 82 1.8 S 39 46 21 25 1008.3 1008.2 0.0
30/06:30am 18.9 13.5 16.0 83 1.7 S 39 46 21 25 1007.3 1007.2 0.0
30/06:00am 19.5 14.8 16.9 85 1.6 SSE 37 46 20 25 1006.8 1006.6 0.0
30/05:30am 20.0 16.5 17.4 85 1.6 SSE 32 37 17 20 1006.5 1006.3 0.0
30/05:00am 22.3 20.4 16.8 71 3.4 SSE 22 33 12 18 1005.8 1005.6 0.0
30/04:30am 21.4 20.4 14.6 65 4.0 S 13 19 7 10 1005.2 1005.0 0.0
30/04:00am 21.7 21.7 15.1 66 3.9 S 9 13 5 7 1004.8 1004.6 0.0
30/03:30am 21.7 21.0 13.3 59 4.8 W 9 15 5 8 1004.5 1004.3 0.0
30/03:00am 21.4 20.8 14.6 65 4.0 WNW 11 13 6 7 1005.0 1004.8 0.0
30/02:30am 21.4 22.2 17.2 77 2.6 W 9 13 5 7 1005.1 1004.9 0.0
30/02:00am 20.9 21.5 17.7 82 2.0 SW 11 15 6 8 1005.1 1004.9 0.0
30/01:30am 22.4 23.1 17.1 72 3.3 WSW 9 13 5 7 1005.6 1005.4 0.0
30/01:00am 23.4 23.5 15.5 61 4.8 WSW 9 13 5 7 1005.5 1005.3 0.0
30/12:30am 24.9 23.8 11.8 44 7.5 NW 9 13 5 7 1006.0 1005.8 0.0
30/12:00am 22.8 23.2 16.4 67 3.9 NW 9 13 5 7 1006.3 1006.1 0.0
 
Date/Time
EDT
Temp
°C
App
Temp
°C
Dew
Point
°C
Rel
Hum
%
Delta-T
°C
Wind Press
QNH
hPa
Press
MSL
hPa
Rain since
9am
mm
Dir  Spd
km/h
Gust
km/h
Spd
kts
Gust
kts
29/11:30pm 24.3 23.3 13.5 51 6.3 NW 11 15 6 8 1006.1 1005.9 0.0
29/11:00pm 23.0 22.5 17.0 69 3.7 WNW 15 17 8 9 1005.9 1005.7 0.0
29/10:30pm 22.5 23.3 18.1 76 2.8 WNW 11 17 6 9 1006.0 1005.8 0.0
29/10:00pm 24.0 22.5 16.8 64 4.4 NW 20 24 11 13 1005.5 1005.3 0.0
29/09:30pm 23.4 24.0 18.5 74 3.1 NW 13 22 7 12 1005.4 1005.2 0.0
29/09:00pm 23.4 24.0 20.2 82 2.1 NW 17 20 9 11 1004.9 1004.7 0.0
29/08:30pm 22.7 24.2 20.6 88 1.4 NW 13 17 7 9 1004.7 1004.5 0.0
29/08:00pm 23.1 23.6 20.8 87 1.5 NNW 19 24 10 13 1004.3 1004.1 0.0
29/07:30pm 23.1 24.0 21.5 91 1.1 NNW 19 24 10 13 1004.1 1003.9 0.0
29/07:00pm 22.9 25.0 21.7 93 0.8 NNW 13 19 7 10 1004.2 1004.0 0.0
29/06:30pm 23.3 26.2 21.7 91 1.1 NW 9 13 5 7 1004.3 1004.1 0.0
29/06:00pm 23.5 26.0 21.8 90 1.1 N 11 17 6 9 1004.3 1004.1 0.0
29/05:30pm 23.8 26.3 21.7 88 1.4 N 11 15 6 8 1004.5 1004.3 0.0
29/05:00pm 23.9 26.2 21.4 86 1.7 N 11 15 6 8 1004.6 1004.4 0.0
29/04:30pm 24.3 26.7 21.6 85 1.8 N 11 17 6 9 1004.7 1004.5 0.0
29/04:00pm 24.3 26.2 21.4 84 1.9 NNE 13 17 7 9 1005.0 1004.8 0.0
29/03:30pm 24.0 25.8 21.1 84 1.9 NNE 13 17 7 9 1005.4 1005.2 0.0
29/03:00pm 24.5 27.3 21.6 84 1.9 NNE 9 13 5 7 1005.7 1005.5 0.0
29/02:30pm 23.6 25.4 20.3 82 2.1 NNE 11 15 6 8 1006.2 1006.0 0.0
29/02:00pm 23.7 24.8 18.8 74 3.1 NNE 11 15 6 8 1006.7 1006.5 0.0
29/01:30pm 23.1 23.4 16.9 68 3.8 N 11 15 6 8 1007.3 1007.2 0.0
29/01:00pm 22.9 23.2 17.1 70 3.6 NNE 11 17 6 9 1007.9 1007.8 0.0
29/12:30pm 22.7 23.2 17.4 72 3.3 NNE 11 15 6 8 1008.2 1008.1 0.0
29/12:00pm 22.5 22.7 16.8 70 3.5 N 11 17 6 9 1008.7 1008.6 0.0
29/11:30am 22.0 22.9 17.6 76 2.7 N 9 13 5 7 1009.2 1009.1 0.0
29/11:00am 21.2 21.8 16.8 76 2.7 NNW 9 13 5 7 1009.8 1009.7 0.0
29/10:30am 20.6 20.7 16.4 77 2.5 NNW 11 13 6 7 1010.0 1009.9 0.0
29/10:00am 20.4 20.8 17.2 82 2.0 NNW 11 15 6 8 1010.3 1010.2 0.0
29/09:30am 19.7 20.0 17.1 85 1.6 NNW 11 13 6 7 1010.4 1010.3 0.0
29/09:00am 19.4 19.7 17.9 91 0.9 N 13 19 7 10 1010.3 1010.2 0.2
29/08:30am 19.4 19.8 18.1 92 0.8 N 13 17 7 9 1010.5 1010.4 0.2
29/08:00am 19.6 20.0 18.1 91 0.9 N 13 20 7 11 1010.4 1010.3 0.2
29/07:30am 19.6 20.3 17.9 90 1.0 NNW 11 15 6 8 1010.2 1010.1 0.2
29/07:00am 19.8 20.5 17.9 89 1.2 NNW 11 13 6 7 1010.2 1010.1 0.2
29/06:30am 19.8 20.9 17.9 89 1.2 NNW 9 13 5 7 1010.2 1010.1 0.2
29/06:00am 19.9 21.0 17.9 88 1.2 NNW 9 13 5 7 1010.3 1010.2 0.2
29/05:30am 19.8 20.8 17.8 88 1.2 NW 9 13 5 7 1010.3 1010.2 0.2
29/05:00am 19.5 20.4 17.5 88 1.2 NW 9 13 5 7 1010.4 1010.3 0.2
29/04:30am 19.6 20.4 17.4 87 1.3 NW 9 13 5 7 1010.7 1010.6 0.2
29/04:00am 19.9 20.8 17.5 86 1.5 NW 9 13 5 7 1010.6 1010.5 0.2
29/03:30am 20.1 21.1 17.7 86 1.5 NNW 9 13 5 7 1010.9 1010.8 0.2
29/03:00am 20.0 20.8 17.4 85 1.6 N 9 13 5 7 1011.2 1011.1 0.2
29/02:30am 19.6 20.3 17.0 85 1.6 N 9 13 5 7 1011.6 1011.5 0.2
29/02:00am 19.9 20.5 16.9 83 1.8 NNW 9 13 5 7 1011.9 1011.8 0.2
29/01:30am 20.1 20.8 17.1 83 1.8 NW 9 15 5 8 1012.4 1012.3 0.2
29/01:00am 19.8 20.0 16.8 83 1.8 NW 11 15 6 8 1012.8 1012.7 0.2
29/12:30am 19.5 19.6 16.5 83 1.8 NW 11 15 6 8 1012.9 1012.8 0.2
29/12:00am 19.6 19.7 16.4 82 1.9 NW 11 17 6 9 1013.2 1013.0 0.2
 
Date/Time
EDT
Temp
°C
App
Temp
°C
Dew
Point
°C
Rel
Hum
%
Delta-T
°C
Wind Press
QNH
hPa
Press
MSL
hPa
Rain since
9am
mm
Dir  Spd
km/h
Gust
km/h
Spd
kts
Gust
kts
28/11:30pm 19.7 19.3 16.3 81 2.0 NW 13 15 7 8 1013.3 1013.1 0.2
28/11:00pm 20.2 20.3 16.6 80 2.2 NW 11 13 6 7 1013.5 1013.3 0.2
28/10:30pm 20.7 21.3 16.9 79 2.3 NNW 9 13 5 7 1013.7 1013.5 0.2
28/10:00pm 20.7 21.3 16.7 78 2.4 NW 9 13 5 7 1013.8 1013.6 0.2
28/09:30pm 20.7 21.6 16.7 78 2.4 N 7 13 4 7 1013.7 1013.5 0.2
28/09:00pm 20.8 21.6 16.4 76 2.7 N 7 13 4 7 1013.6 1013.4 0.2
28/08:30pm 20.8 21.2 16.2 75 2.8 NNE 9 13 5 7 1013.3 1013.1 0.2
28/08:00pm 20.8 21.5 16.0 74 2.9 NNE 7 13 4 7 1013.3 1013.1 0.2
28/07:30pm 20.7 20.9 15.7 73 3.0 NE 9 13 5 7 1013.2 1013.0 0.2
28/07:00pm 20.7 20.8 15.5 72 3.1 ENE 9 13 5 7 1013.2 1013.0 0.2
28/06:30pm 20.6 20.2 15.2 71 3.2 E 11 13 6 7 1012.9 1012.8 0.2
28/06:00pm 20.7 20.1 14.6 68 3.6 E 11 15 6 8 1012.8 1012.7 0.2
28/05:30pm 20.7 19.9 13.9 65 3.9 E 11 15 6 8 1012.8 1012.7 0.2
28/05:00pm 20.9 19.6 13.8 64 4.1 E 13 17 7 9 1012.6 1012.5 0.2
28/04:30pm 20.9 19.4 13.1 61 4.5 ESE 13 19 7 10 1012.6 1012.5 0.2
28/04:00pm 21.2 19.9 12.6 58 4.9 ESE 11 15 6 8 1012.8 1012.7 0.2
28/03:30pm 21.2 19.8 12.3 57 5.0 ESE 11 15 6 8 1013.1 1012.9 0.2
28/03:00pm 21.4 19.8 11.7 54 5.4 ESE 11 15 6 8 1013.2 1013.0 0.2
28/02:30pm 21.2 19.9 11.2 53 5.5 SE 9 15 5 8 1013.5 1013.3 0.2
28/02:00pm 21.8 20.5 11.2 51 5.9 SE 9 15 5 8 1013.7 1013.5 0.2
28/01:30pm 21.6 20.7 11.3 52 5.7 SE 7 13 4 7 1014.0 1013.8 0.2
28/01:00pm 21.6 20.3 11.3 52 5.7 SE 9 13 5 7 1014.3 1014.1 0.2
28/12:30pm 21.2 20.3 11.2 53 5.5 SE 7 17 4 9 1014.7 1014.5 0.2
28/12:00pm 21.4 20.1 11.1 52 5.7 SE 9 13 5 7 1014.9 1014.7 0.2
28/11:30am 21.7 21.2 12.8 57 5.1 SSE 7 11 4 6 1015.0 1014.8 0.2
28/11:00am 21.0 20.9 13.4 62 4.4 SE 6 11 3 6 1015.2 1015.0 0.2
28/10:30am 21.0 20.9 13.9 64 4.1 SSW 7 11 4 6 1015.2 1015.0 0.0
28/10:00am 20.0 20.3 13.5 66 3.7 SSW 4 9 2 5 1015.0 1014.8 0.0
28/09:30am 19.6 19.8 14.2 71 3.1 SW 6 9 3 5 1014.8 1014.6 0.0
28/09:00am 19.2 18.9 14.5 74 2.7 WSW 9 13 5 7 1014.7 1014.5 1.6
28/08:30am 19.0 18.7 14.5 75 2.6 WSW 9 13 5 7 1014.3 1014.1 1.6
28/08:00am 19.1 18.6 13.9 72 3.0 WSW 9 13 5 7 1014.1 1013.9 1.6
28/07:30am 19.2 17.1 11.3 60 4.3 SSE 13 17 7 9 1013.8 1013.6 1.6
28/07:00am 19.5 17.8 12.5 64 3.9 SSE 13 17 7 9 1013.5 1013.3 1.6
28/06:30am 19.3 16.7 12.1 63 4.0 SSE 17 20 9 11 1013.3 1013.1 1.6
28/06:00am 19.1 16.1 11.9 63 4.0 SSE 19 24 10 13 1013.1 1012.9 1.6
28/05:30am 19.3 16.0 11.6 61 4.2 SSE 20 28 11 15 1012.8 1012.7 1.6
28/05:00am 19.2 16.1 11.5 61 4.2 S 19 24 10 13 1012.8 1012.7 1.6
28/04:30am 19.2 15.9 11.5 61 4.2 S 20 24 11 13 1012.6 1012.5 1.6
28/04:00am 19.1 16.1 11.9 63 4.0 S 19 24 10 13 1012.8 1012.7 1.6
28/03:30am 18.6 16.2 13.9 74 2.7 S 19 22 10 12 1012.8 1012.7 1.6
28/03:00am 18.0 14.7 14.1 78 2.2 SSW 24 30 13 16 1012.9 1012.8 1.6
28/02:30am 18.0 13.7 13.3 74 2.7 S 28 35 15 19 1012.9 1012.8 1.6
28/02:00am 18.7 14.7 14.0 74 2.7 S 28 35 15 19 1012.7 1012.6 1.6
28/01:30am 18.9 15.8 15.6 81 2.0 S 26 32 14 17 1012.6 1012.5 1.6
28/01:00am 18.6 16.1 16.2 86 1.4 S 24 28 13 15 1012.4 1012.3 1.6
28/12:30am 18.8 16.7 16.2 85 1.6 S 22 26 12 14 1012.0 1011.9 1.6
28/12:00am 18.9 17.1 17.0 89 1.2 S 22 28 12 15 1011.4 1011.3 1.6
 
Date/Time
EDT
Temp
°C
App
Temp
°C
Dew
Point
°C
Rel
Hum
%
Delta-T
°C
Wind Press
QNH
hPa
Press
MSL
hPa
Rain since
9am
mm
Dir  Spd
km/h
Gust
km/h
Spd
kts
Gust
kts
27/11:30pm 19.1 17.0 17.2 89 1.2 S 24 32 13 17 1011.6 1011.5 1.6
27/11:00pm 18.8 16.7 17.1 90 1.0 SSE 24 32 13 17 1011.8 1011.7 1.6
27/10:30pm 19.1 15.5 17.2 89 1.2 SSE 32 37 17 20 1011.6 1011.5 1.6
27/10:00pm 18.9 15.8 17.6 92 0.8 S 30 35 16 19 1012.0 1011.9 1.6
27/09:30pm 19.2 15.1 17.3 89 1.2 SSW 35 46 19 25 1012.0 1011.9 1.0
27/09:20pm 19.9 15.3 17.9 88 1.2 SSW 39 50 21 27 1012.0 1011.9 0.8
27/09:00pm 19.4 14.2 17.4 88 1.2 SSW 41 57 22 31 1010.0 1009.9 0.8
27/08:30pm 22.1 16.5 17.5 75 2.8 SSW 43 56 23 30 1010.2 1010.1 0.0
27/08:19pm 22.6 19.4 18.6 78 2.5 SW 33 50 18 27 1009.8 1009.7 0.0
27/08:11pm 24.1 22.7 22.0 88 1.4 WSW 32 48 17 26 1009.7 1009.6 0.0
27/08:00pm 23.2 22.8 21.6 91 1.1 NNW 26 37 14 20 1007.7 1007.6 0.0
27/07:58pm 23.2 22.4 21.6 91 1.1 N 28 37 15 20 1006.8 1006.6 0.0
27/07:30pm 23.2 20.3 21.5 90 1.1 N 39 46 21 25 1005.2 1005.0 0.0
27/07:00pm 23.3 20.3 21.4 89 1.3 NNE 39 48 21 26 1004.6 1004.4 0.0
27/06:30pm 23.3 20.6 21.2 88 1.4 NNE 37 46 20 25 1004.6 1004.4 0.0
27/06:00pm 23.3 20.2 21.2 88 1.4 NNE 39 48 21 26 1004.4 1004.2 0.0
27/05:30pm 23.5 20.4 21.2 87 1.5 NNE 39 48 21 26 1005.1 1004.9 0.0
27/05:00pm 23.6 21.2 21.1 86 1.6 NNE 35 43 19 23 1005.6 1005.4 0.0
27/04:30pm 23.7 21.3 21.0 85 1.8 NNE 35 43 19 23 1005.9 1005.7 0.0
27/04:00pm 23.7 20.8 20.8 84 1.9 NNE 37 44 20 24 1006.2 1006.0 0.0
27/03:30pm 23.7 21.1 20.6 83 2.0 NNE 35 44 19 24 1006.7 1006.5 0.0
27/03:00pm 23.9 21.3 20.6 82 2.2 NNE 35 43 19 23 1007.4 1007.3 0.0
27/02:30pm 23.8 21.4 20.3 81 2.3 NNE 33 41 18 22 1007.7 1007.6 0.0
27/02:00pm 23.7 21.2 20.2 81 2.3 NNE 33 41 18 22 1008.3 1008.2 0.0
27/01:30pm 23.6 20.9 19.7 79 2.5 NNE 33 41 18 22 1008.9 1008.8 0.0
27/01:00pm 23.6 21.2 19.9 80 2.4 NNE 32 39 17 21 1009.8 1009.7 0.0
27/12:30pm 23.5 21.7 19.6 79 2.5 NNE 28 39 15 21 1010.5 1010.4 0.0
27/12:00pm 23.5 21.4 19.8 80 2.4 NNE 30 33 16 18 1011.0 1010.9 0.0
27/11:30am 23.2 20.8 19.2 78 2.6 NNE 30 37 16 20 1011.5 1011.4 0.0
27/11:00am 23.0 21.5 19.4 80 2.3 NNE 26 32 14 17 1012.2 1012.1 0.0
27/10:30am 22.9 21.1 18.7 77 2.7 N 26 32 14 17 1012.7 1012.6 0.0
27/10:00am 22.5 22.2 19.1 81 2.2 N 19 26 10 14 1013.2 1013.0 0.0

Other Formats:

Comma delimited format used in spreadsheet applications
http://www.bom.gov.au/fwo/IDN60801/IDN60801.94939.axf

JavaScript Object Notation format (JSON) in row-major order
http://www.bom.gov.au/fwo/IDN60801/IDN60801.94939.json